sensor_id;sensor_type;location;lat;lon;timestamp;P1;durP1;ratioP1;P2;durP2;ratioP2
49730;SDS011;35622;52.008;5.426;2023-09-30T00:01:02;13.75;;;3.95;;
49730;SDS011;35622;52.008;5.426;2023-09-30T00:03:33;7.28;;;3.28;;
49730;SDS011;35622;52.008;5.426;2023-09-30T00:05:59;10.23;;;3.58;;
49730;SDS011;35622;52.008;5.426;2023-09-30T00:08:24;13.60;;;3.95;;
49730;SDS011;35622;52.008;5.426;2023-09-30T00:10:50;11.27;;;3.92;;
49730;SDS011;35622;52.008;5.426;2023-09-30T00:13:18;10.63;;;4.15;;
49730;SDS011;35622;52.008;5.426;2023-09-30T00:15:43;8.80;;;4.00;;
49730;SDS011;35622;52.008;5.426;2023-09-30T00:18:09;12.02;;;4.20;;
49730;SDS011;35622;52.008;5.426;2023-09-30T00:20:34;9.82;;;3.92;;
49730;SDS011;35622;52.008;5.426;2023-09-30T00:23:00;7.95;;;4.10;;
49730;SDS011;35622;52.008;5.426;2023-09-30T00:25:25;10.15;;;4.22;;
49730;SDS011;35622;52.008;5.426;2023-09-30T00:27:52;10.30;;;3.92;;
49730;SDS011;35622;52.008;5.426;2023-09-30T00:30:18;11.05;;;4.00;;
49730;SDS011;35622;52.008;5.426;2023-09-30T00:32:43;8.63;;;3.88;;
49730;SDS011;35622;52.008;5.426;2023-09-30T00:35:09;8.80;;;3.95;;
49730;SDS011;35622;52.008;5.426;2023-09-30T00:37:39;10.25;;;4.25;;
49730;SDS011;35622;52.008;5.426;2023-09-30T00:40:05;9.52;;;3.92;;
49730;SDS011;35622;52.008;5.426;2023-09-30T00:42:32;10.15;;;4.15;;
49730;SDS011;35622;52.008;5.426;2023-09-30T00:44:57;13.25;;;3.85;;
49730;SDS011;35622;52.008;5.426;2023-09-30T00:47:24;10.25;;;4.10;;
49730;SDS011;35622;52.008;5.426;2023-09-30T00:49:51;11.95;;;3.60;;
49730;SDS011;35622;52.008;5.426;2023-09-30T00:52:18;9.18;;;3.53;;
49730;SDS011;35622;52.008;5.426;2023-09-30T00:54:44;11.63;;;4.05;;
49730;SDS011;35622;52.008;5.426;2023-09-30T00:57:11;9.63;;;3.95;;
49730;SDS011;35622;52.008;5.426;2023-09-30T00:59:37;13.15;;;4.57;;
49730;SDS011;35622;52.008;5.426;2023-09-30T01:02:04;11.05;;;4.78;;
49730;SDS011;35622;52.008;5.426;2023-09-30T01:04:31;12.07;;;4.03;;
49730;SDS011;35622;52.008;5.426;2023-09-30T01:06:57;10.43;;;3.97;;
49730;SDS011;35622;52.008;5.426;2023-09-30T01:09:23;11.50;;;4.28;;
49730;SDS011;35622;52.008;5.426;2023-09-30T01:11:49;12.48;;;4.45;;
49730;SDS011;35622;52.008;5.426;2023-09-30T01:14:27;11.07;;;4.28;;
49730;SDS011;35622;52.008;5.426;2023-09-30T01:16:54;15.45;;;5.22;;
49730;SDS011;35622;52.008;5.426;2023-09-30T01:19:20;12.52;;;5.07;;
49730;SDS011;35622;52.008;5.426;2023-09-30T01:21:47;13.38;;;4.93;;
49730;SDS011;35622;52.008;5.426;2023-09-30T01:24:22;12.63;;;5.18;;
49730;SDS011;35622;52.008;5.426;2023-09-30T01:26:47;14.65;;;4.97;;
49730;SDS011;35622;52.008;5.426;2023-09-30T01:29:13;15.25;;;4.60;;
49730;SDS011;35622;52.008;5.426;2023-09-30T01:31:39;11.60;;;4.72;;
49730;SDS011;35622;52.008;5.426;2023-09-30T01:34:04;12.00;;;5.50;;
49730;SDS011;35622;52.008;5.426;2023-09-30T01:36:30;9.90;;;4.65;;
49730;SDS011;35622;52.008;5.426;2023-09-30T01:38:56;10.80;;;4.32;;
49730;SDS011;35622;52.008;5.426;2023-09-30T01:41:22;10.70;;;5.25;;
49730;SDS011;35622;52.008;5.426;2023-09-30T01:43:48;11.65;;;4.78;;
49730;SDS011;35622;52.008;5.426;2023-09-30T01:46:14;10.27;;;4.78;;
49730;SDS011;35622;52.008;5.426;2023-09-30T01:48:39;12.50;;;4.97;;
49730;SDS011;35622;52.008;5.426;2023-09-30T01:51:05;12.00;;;4.95;;
49730;SDS011;35622;52.008;5.426;2023-09-30T01:53:31;9.85;;;5.10;;
49730;SDS011;35622;52.008;5.426;2023-09-30T01:55:57;12.95;;;4.95;;
49730;SDS011;35622;52.008;5.426;2023-09-30T01:58:23;13.23;;;5.18;;
49730;SDS011;35622;52.008;5.426;2023-09-30T02:00:49;10.88;;;4.45;;
49730;SDS011;35622;52.008;5.426;2023-09-30T02:03:15;11.93;;;4.63;;
49730;SDS011;35622;52.008;5.426;2023-09-30T02:05:42;11.68;;;5.60;;
49730;SDS011;35622;52.008;5.426;2023-09-30T02:08:08;11.98;;;4.85;;
49730;SDS011;35622;52.008;5.426;2023-09-30T02:10:33;10.23;;;5.10;;
49730;SDS011;35622;52.008;5.426;2023-09-30T02:12:59;11.48;;;4.47;;
49730;SDS011;35622;52.008;5.426;2023-09-30T02:15:25;9.75;;;4.88;;
49730;SDS011;35622;52.008;5.426;2023-09-30T02:17:50;14.77;;;4.75;;
49730;SDS011;35622;52.008;5.426;2023-09-30T02:20:17;11.23;;;4.90;;
49730;SDS011;35622;52.008;5.426;2023-09-30T02:22:45;13.80;;;5.57;;
49730;SDS011;35622;52.008;5.426;2023-09-30T02:25:11;11.30;;;5.40;;
49730;SDS011;35622;52.008;5.426;2023-09-30T02:27:38;12.52;;;5.47;;
49730;SDS011;35622;52.008;5.426;2023-09-30T02:30:05;8.88;;;4.15;;
49730;SDS011;35622;52.008;5.426;2023-09-30T02:32:31;9.55;;;4.97;;
49730;SDS011;35622;52.008;5.426;2023-09-30T02:34:58;9.65;;;5.07;;
49730;SDS011;35622;52.008;5.426;2023-09-30T02:37:24;11.40;;;5.10;;
49730;SDS011;35622;52.008;5.426;2023-09-30T02:39:50;10.32;;;5.50;;
49730;SDS011;35622;52.008;5.426;2023-09-30T02:42:15;10.43;;;5.40;;
49730;SDS011;35622;52.008;5.426;2023-09-30T02:44:41;14.10;;;6.57;;
49730;SDS011;35622;52.008;5.426;2023-09-30T02:47:06;12.25;;;6.53;;
49730;SDS011;35622;52.008;5.426;2023-09-30T02:49:33;12.48;;;5.90;;
49730;SDS011;35622;52.008;5.426;2023-09-30T02:51:59;15.93;;;6.53;;
49730;SDS011;35622;52.008;5.426;2023-09-30T02:54:25;10.82;;;6.10;;
49730;SDS011;35622;52.008;5.426;2023-09-30T02:56:51;17.65;;;6.95;;
49730;SDS011;35622;52.008;5.426;2023-09-30T02:59:17;12.43;;;6.28;;
49730;SDS011;35622;52.008;5.426;2023-09-30T03:01:43;10.90;;;6.03;;
49730;SDS011;35622;52.008;5.426;2023-09-30T03:04:09;12.85;;;6.47;;
49730;SDS011;35622;52.008;5.426;2023-09-30T03:06:37;15.15;;;6.28;;
49730;SDS011;35622;52.008;5.426;2023-09-30T03:09:03;13.93;;;5.90;;
49730;SDS011;35622;52.008;5.426;2023-09-30T03:11:32;11.65;;;6.35;;
49730;SDS011;35622;52.008;5.426;2023-09-30T03:13:59;14.10;;;7.35;;
49730;SDS011;35622;52.008;5.426;2023-09-30T03:16:24;11.32;;;6.00;;
49730;SDS011;35622;52.008;5.426;2023-09-30T03:18:50;13.82;;;6.40;;
49730;SDS011;35622;52.008;5.426;2023-09-30T03:21:16;13.65;;;6.57;;
49730;SDS011;35622;52.008;5.426;2023-09-30T03:23:42;14.40;;;6.63;;
49730;SDS011;35622;52.008;5.426;2023-09-30T03:26:08;12.98;;;5.72;;
49730;SDS011;35622;52.008;5.426;2023-09-30T03:28:38;13.35;;;6.55;;
49730;SDS011;35622;52.008;5.426;2023-09-30T03:31:04;12.73;;;6.47;;
49730;SDS011;35622;52.008;5.426;2023-09-30T03:33:34;14.95;;;6.90;;
49730;SDS011;35622;52.008;5.426;2023-09-30T03:36:00;13.55;;;6.57;;
49730;SDS011;35622;52.008;5.426;2023-09-30T03:38:26;14.07;;;7.00;;
49730;SDS011;35622;52.008;5.426;2023-09-30T03:40:51;13.18;;;6.65;;
49730;SDS011;35622;52.008;5.426;2023-09-30T03:43:19;11.88;;;6.78;;
49730;SDS011;35622;52.008;5.426;2023-09-30T03:45:46;13.02;;;6.75;;
49730;SDS011;35622;52.008;5.426;2023-09-30T03:48:12;13.20;;;7.20;;
49730;SDS011;35622;52.008;5.426;2023-09-30T03:50:37;14.55;;;7.43;;
49730;SDS011;35622;52.008;5.426;2023-09-30T03:53:03;16.98;;;8.30;;
49730;SDS011;35622;52.008;5.426;2023-09-30T03:55:32;14.40;;;7.80;;
49730;SDS011;35622;52.008;5.426;2023-09-30T03:57:58;13.85;;;8.07;;
49730;SDS011;35622;52.008;5.426;2023-09-30T04:00:24;15.20;;;7.18;;
49730;SDS011;35622;52.008;5.426;2023-09-30T04:02:50;19.38;;;8.70;;
49730;SDS011;35622;52.008;5.426;2023-09-30T04:05:22;14.80;;;8.52;;
49730;SDS011;35622;52.008;5.426;2023-09-30T04:07:53;15.27;;;7.70;;
49730;SDS011;35622;52.008;5.426;2023-09-30T04:10:19;15.38;;;8.20;;
49730;SDS011;35622;52.008;5.426;2023-09-30T04:12:47;18.83;;;8.18;;
49730;SDS011;35622;52.008;5.426;2023-09-30T04:15:13;18.60;;;8.75;;
49730;SDS011;35622;52.008;5.426;2023-09-30T04:17:39;13.95;;;7.75;;
49730;SDS011;35622;52.008;5.426;2023-09-30T04:20:08;17.17;;;8.63;;
49730;SDS011;35622;52.008;5.426;2023-09-30T04:22:36;17.27;;;9.00;;
49730;SDS011;35622;52.008;5.426;2023-09-30T04:25:02;19.88;;;9.27;;
49730;SDS011;35622;52.008;5.426;2023-09-30T04:27:33;15.85;;;8.57;;
49730;SDS011;35622;52.008;5.426;2023-09-30T04:29:59;17.45;;;8.65;;
49730;SDS011;35622;52.008;5.426;2023-09-30T04:32:24;16.77;;;8.82;;
49730;SDS011;35622;52.008;5.426;2023-09-30T04:34:52;16.85;;;9.40;;
49730;SDS011;35622;52.008;5.426;2023-09-30T04:37:17;16.17;;;9.18;;
49730;SDS011;35622;52.008;5.426;2023-09-30T04:39:43;19.73;;;9.60;;
49730;SDS011;35622;52.008;5.426;2023-09-30T04:42:09;21.75;;;10.95;;
49730;SDS011;35622;52.008;5.426;2023-09-30T04:44:36;16.27;;;9.65;;
49730;SDS011;35622;52.008;5.426;2023-09-30T04:47:03;20.25;;;9.40;;
49730;SDS011;35622;52.008;5.426;2023-09-30T04:49:29;17.98;;;9.73;;
49730;SDS011;35622;52.008;5.426;2023-09-30T04:51:54;16.63;;;9.70;;
49730;SDS011;35622;52.008;5.426;2023-09-30T04:54:20;15.20;;;9.23;;
49730;SDS011;35622;52.008;5.426;2023-09-30T04:56:46;19.20;;;9.98;;
49730;SDS011;35622;52.008;5.426;2023-09-30T04:59:12;16.15;;;9.27;;
49730;SDS011;35622;52.008;5.426;2023-09-30T05:01:37;17.38;;;9.38;;
49730;SDS011;35622;52.008;5.426;2023-09-30T05:04:03;17.40;;;9.55;;
49730;SDS011;35622;52.008;5.426;2023-09-30T05:06:30;15.32;;;9.45;;
49730;SDS011;35622;52.008;5.426;2023-09-30T05:08:57;17.42;;;9.02;;
49730;SDS011;35622;52.008;5.426;2023-09-30T05:11:23;18.67;;;10.45;;
49730;SDS011;35622;52.008;5.426;2023-09-30T05:13:49;18.67;;;9.13;;
49730;SDS011;35622;52.008;5.426;2023-09-30T05:16:15;21.52;;;10.73;;
49730;SDS011;35622;52.008;5.426;2023-09-30T05:18:42;16.20;;;9.32;;
49730;SDS011;35622;52.008;5.426;2023-09-30T05:21:08;21.25;;;10.10;;
49730;SDS011;35622;52.008;5.426;2023-09-30T05:23:33;19.17;;;8.95;;
49730;SDS011;35622;52.008;5.426;2023-09-30T05:25:59;20.52;;;10.82;;
49730;SDS011;35622;52.008;5.426;2023-09-30T05:28:25;19.88;;;10.32;;
49730;SDS011;35622;52.008;5.426;2023-09-30T05:30:52;23.20;;;10.52;;
49730;SDS011;35622;52.008;5.426;2023-09-30T05:33:18;18.73;;;9.48;;
49730;SDS011;35622;52.008;5.426;2023-09-30T05:35:44;21.38;;;10.90;;
49730;SDS011;35622;52.008;5.426;2023-09-30T05:38:09;19.75;;;9.95;;
49730;SDS011;35622;52.008;5.426;2023-09-30T05:40:35;17.27;;;9.82;;
49730;SDS011;35622;52.008;5.426;2023-09-30T05:43:01;16.90;;;10.10;;
49730;SDS011;35622;52.008;5.426;2023-09-30T05:45:30;18.65;;;10.68;;
49730;SDS011;35622;52.008;5.426;2023-09-30T05:47:59;18.17;;;10.25;;
49730;SDS011;35622;52.008;5.426;2023-09-30T05:50:28;16.85;;;10.05;;
49730;SDS011;35622;52.008;5.426;2023-09-30T05:52:54;19.30;;;10.25;;
49730;SDS011;35622;52.008;5.426;2023-09-30T05:55:20;18.13;;;10.25;;
49730;SDS011;35622;52.008;5.426;2023-09-30T05:57:50;19.58;;;9.65;;
49730;SDS011;35622;52.008;5.426;2023-09-30T06:00:17;19.67;;;10.13;;
49730;SDS011;35622;52.008;5.426;2023-09-30T06:02:48;17.35;;;10.98;;
49730;SDS011;35622;52.008;5.426;2023-09-30T06:05:14;19.15;;;10.10;;
49730;SDS011;35622;52.008;5.426;2023-09-30T06:07:43;17.10;;;10.40;;
49730;SDS011;35622;52.008;5.426;2023-09-30T06:10:10;19.38;;;10.73;;
49730;SDS011;35622;52.008;5.426;2023-09-30T06:12:36;21.23;;;11.13;;
49730;SDS011;35622;52.008;5.426;2023-09-30T06:15:02;18.95;;;10.57;;
49730;SDS011;35622;52.008;5.426;2023-09-30T06:17:28;19.67;;;11.70;;
49730;SDS011;35622;52.008;5.426;2023-09-30T06:19:53;18.50;;;11.40;;
49730;SDS011;35622;52.008;5.426;2023-09-30T06:22:20;18.60;;;11.43;;
49730;SDS011;35622;52.008;5.426;2023-09-30T06:24:46;20.27;;;11.02;;
49730;SDS011;35622;52.008;5.426;2023-09-30T06:27:13;21.13;;;10.68;;
49730;SDS011;35622;52.008;5.426;2023-09-30T06:29:38;20.17;;;11.68;;
49730;SDS011;35622;52.008;5.426;2023-09-30T06:32:05;19.77;;;11.38;;
49730;SDS011;35622;52.008;5.426;2023-09-30T06:34:32;19.08;;;11.00;;
49730;SDS011;35622;52.008;5.426;2023-09-30T06:36:59;17.58;;;10.52;;
49730;SDS011;35622;52.008;5.426;2023-09-30T06:39:24;17.92;;;10.20;;
49730;SDS011;35622;52.008;5.426;2023-09-30T06:41:50;16.45;;;10.30;;
49730;SDS011;35622;52.008;5.426;2023-09-30T06:44:16;14.13;;;8.27;;
49730;SDS011;35622;52.008;5.426;2023-09-30T06:46:42;14.82;;;9.07;;
49730;SDS011;35622;52.008;5.426;2023-09-30T06:49:08;14.65;;;9.43;;
49730;SDS011;35622;52.008;5.426;2023-09-30T06:51:34;15.23;;;9.65;;
49730;SDS011;35622;52.008;5.426;2023-09-30T06:53:59;16.20;;;9.23;;
49730;SDS011;35622;52.008;5.426;2023-09-30T06:56:25;16.60;;;9.60;;
49730;SDS011;35622;52.008;5.426;2023-09-30T06:58:51;14.43;;;9.15;;
49730;SDS011;35622;52.008;5.426;2023-09-30T07:01:17;13.65;;;9.00;;
49730;SDS011;35622;52.008;5.426;2023-09-30T07:03:42;16.35;;;9.45;;
49730;SDS011;35622;52.008;5.426;2023-09-30T07:06:08;14.40;;;9.40;;
49730;SDS011;35622;52.008;5.426;2023-09-30T07:08:34;15.82;;;9.00;;
49730;SDS011;35622;52.008;5.426;2023-09-30T07:10:59;15.32;;;9.68;;
49730;SDS011;35622;52.008;5.426;2023-09-30T07:13:25;14.23;;;10.70;;
49730;SDS011;35622;52.008;5.426;2023-09-30T07:15:50;16.45;;;10.43;;
49730;SDS011;35622;52.008;5.426;2023-09-30T07:18:16;15.65;;;10.18;;
49730;SDS011;35622;52.008;5.426;2023-09-30T07:20:43;16.90;;;11.00;;
49730;SDS011;35622;52.008;5.426;2023-09-30T07:23:08;14.93;;;10.00;;
49730;SDS011;35622;52.008;5.426;2023-09-30T07:25:34;13.45;;;9.55;;
49730;SDS011;35622;52.008;5.426;2023-09-30T07:28:00;14.85;;;9.27;;
49730;SDS011;35622;52.008;5.426;2023-09-30T07:30:26;13.52;;;9.75;;
49730;SDS011;35622;52.008;5.426;2023-09-30T07:32:52;14.93;;;9.55;;
49730;SDS011;35622;52.008;5.426;2023-09-30T07:35:18;12.50;;;8.52;;
49730;SDS011;35622;52.008;5.426;2023-09-30T07:37:43;12.82;;;9.15;;
49730;SDS011;35622;52.008;5.426;2023-09-30T07:40:09;12.65;;;9.38;;
49730;SDS011;35622;52.008;5.426;2023-09-30T07:42:36;16.45;;;9.77;;
49730;SDS011;35622;52.008;5.426;2023-09-30T07:45:02;14.40;;;9.15;;
49730;SDS011;35622;52.008;5.426;2023-09-30T07:47:30;13.05;;;8.85;;
49730;SDS011;35622;52.008;5.426;2023-09-30T07:49:58;16.92;;;10.52;;
49730;SDS011;35622;52.008;5.426;2023-09-30T07:52:31;13.88;;;10.02;;
49730;SDS011;35622;52.008;5.426;2023-09-30T07:54:56;13.70;;;9.98;;
49730;SDS011;35622;52.008;5.426;2023-09-30T07:57:22;14.07;;;9.27;;
49730;SDS011;35622;52.008;5.426;2023-09-30T07:59:48;14.38;;;10.15;;
49730;SDS011;35622;52.008;5.426;2023-09-30T08:02:13;17.27;;;11.57;;
49730;SDS011;35622;52.008;5.426;2023-09-30T08:04:39;17.52;;;11.60;;
49730;SDS011;35622;52.008;5.426;2023-09-30T08:07:04;18.13;;;12.00;;
49730;SDS011;35622;52.008;5.426;2023-09-30T08:09:30;16.95;;;12.85;;
49730;SDS011;35622;52.008;5.426;2023-09-30T08:11:56;17.20;;;12.23;;
49730;SDS011;35622;52.008;5.426;2023-09-30T08:14:21;14.88;;;11.75;;
49730;SDS011;35622;52.008;5.426;2023-09-30T08:16:47;14.23;;;11.10;;
49730;SDS011;35622;52.008;5.426;2023-09-30T08:19:14;15.43;;;12.00;;
49730;SDS011;35622;52.008;5.426;2023-09-30T08:21:40;14.38;;;12.13;;
49730;SDS011;35622;52.008;5.426;2023-09-30T08:24:05;18.55;;;12.35;;
49730;SDS011;35622;52.008;5.426;2023-09-30T08:26:31;16.50;;;12.40;;
49730;SDS011;35622;52.008;5.426;2023-09-30T08:28:58;16.60;;;13.20;;
49730;SDS011;35622;52.008;5.426;2023-09-30T08:31:23;17.15;;;13.20;;
49730;SDS011;35622;52.008;5.426;2023-09-30T08:33:49;19.10;;;12.48;;
49730;SDS011;35622;52.008;5.426;2023-09-30T08:36:15;19.27;;;12.13;;
49730;SDS011;35622;52.008;5.426;2023-09-30T08:38:40;17.48;;;11.80;;
49730;SDS011;35622;52.008;5.426;2023-09-30T08:41:06;15.88;;;12.18;;
49730;SDS011;35622;52.008;5.426;2023-09-30T08:43:39;18.70;;;11.95;;
49730;SDS011;35622;52.008;5.426;2023-09-30T08:46:05;17.13;;;11.30;;
49730;SDS011;35622;52.008;5.426;2023-09-30T08:48:34;14.63;;;11.88;;
49730;SDS011;35622;52.008;5.426;2023-09-30T08:51:00;17.33;;;11.65;;
49730;SDS011;35622;52.008;5.426;2023-09-30T08:53:28;17.15;;;11.43;;
49730;SDS011;35622;52.008;5.426;2023-09-30T08:55:55;17.98;;;12.07;;
49730;SDS011;35622;52.008;5.426;2023-09-30T08:58:24;18.83;;;11.82;;
49730;SDS011;35622;52.008;5.426;2023-09-30T09:00:52;17.42;;;11.88;;
49730;SDS011;35622;52.008;5.426;2023-09-30T09:03:18;17.92;;;12.35;;
49730;SDS011;35622;52.008;5.426;2023-09-30T09:05:45;18.98;;;12.43;;
49730;SDS011;35622;52.008;5.426;2023-09-30T09:08:11;18.02;;;11.77;;
49730;SDS011;35622;52.008;5.426;2023-09-30T09:10:44;15.65;;;12.10;;
49730;SDS011;35622;52.008;5.426;2023-09-30T09:13:20;16.65;;;12.10;;
49730;SDS011;35622;52.008;5.426;2023-09-30T09:15:46;16.40;;;11.85;;
49730;SDS011;35622;52.008;5.426;2023-09-30T09:18:11;13.70;;;10.40;;
49730;SDS011;35622;52.008;5.426;2023-09-30T09:20:39;15.60;;;11.23;;
49730;SDS011;35622;52.008;5.426;2023-09-30T09:23:04;15.90;;;11.57;;
49730;SDS011;35622;52.008;5.426;2023-09-30T09:25:37;17.08;;;11.82;;
49730;SDS011;35622;52.008;5.426;2023-09-30T09:28:03;16.65;;;11.32;;
49730;SDS011;35622;52.008;5.426;2023-09-30T09:30:29;18.30;;;11.32;;
49730;SDS011;35622;52.008;5.426;2023-09-30T09:35:33;19.02;;;11.93;;
49730;SDS011;35622;52.008;5.426;2023-09-30T09:38:00;16.83;;;11.00;;
49730;SDS011;35622;52.008;5.426;2023-09-30T09:40:27;17.48;;;11.13;;
49730;SDS011;35622;52.008;5.426;2023-09-30T09:42:55;15.52;;;10.25;;
49730;SDS011;35622;52.008;5.426;2023-09-30T09:45:24;13.93;;;10.43;;
49730;SDS011;35622;52.008;5.426;2023-09-30T09:47:52;16.80;;;9.98;;
49730;SDS011;35622;52.008;5.426;2023-09-30T09:50:18;19.58;;;9.95;;
49730;SDS011;35622;52.008;5.426;2023-09-30T09:52:47;15.55;;;9.52;;
49730;SDS011;35622;52.008;5.426;2023-09-30T09:55:15;14.77;;;9.38;;
49730;SDS011;35622;52.008;5.426;2023-09-30T09:57:43;15.55;;;9.25;;
49730;SDS011;35622;52.008;5.426;2023-09-30T10:00:11;15.80;;;9.45;;
49730;SDS011;35622;52.008;5.426;2023-09-30T10:02:39;16.30;;;9.30;;
49730;SDS011;35622;52.008;5.426;2023-09-30T10:05:06;16.30;;;8.80;;
49730;SDS011;35622;52.008;5.426;2023-09-30T10:07:47;14.20;;;8.07;;
49730;SDS011;35622;52.008;5.426;2023-09-30T10:10:18;15.05;;;7.88;;
49730;SDS011;35622;52.008;5.426;2023-09-30T10:12:45;14.30;;;7.63;;
49730;SDS011;35622;52.008;5.426;2023-09-30T10:15:44;14.20;;;7.40;;
49730;SDS011;35622;52.008;5.426;2023-09-30T10:20:32;14.52;;;7.35;;
49730;SDS011;35622;52.008;5.426;2023-09-30T10:25:48;13.65;;;7.22;;
49730;SDS011;35622;52.008;5.426;2023-09-30T10:28:32;14.10;;;6.40;;
49730;SDS011;35622;52.008;5.426;2023-09-30T10:36:33;10.48;;;4.93;;
49730;SDS011;35622;52.008;5.426;2023-09-30T10:39:03;9.13;;;4.80;;
49730;SDS011;35622;52.008;5.426;2023-09-30T10:41:48;9.85;;;4.00;;
49730;SDS011;35622;52.008;5.426;2023-09-30T10:46:59;11.02;;;4.30;;
49730;SDS011;35622;52.008;5.426;2023-09-30T10:49:46;11.00;;;4.32;;
49730;SDS011;35622;52.008;5.426;2023-09-30T10:52:11;10.35;;;3.40;;
49730;SDS011;35622;52.008;5.426;2023-09-30T10:54:48;10.10;;;4.50;;
49730;SDS011;35622;52.008;5.426;2023-09-30T10:57:14;10.02;;;3.60;;
49730;SDS011;35622;52.008;5.426;2023-09-30T11:00:06;11.30;;;2.97;;
49730;SDS011;35622;52.008;5.426;2023-09-30T11:02:33;6.32;;;2.80;;
49730;SDS011;35622;52.008;5.426;2023-09-30T11:05:07;7.22;;;2.72;;
49730;SDS011;35622;52.008;5.426;2023-09-30T11:07:34;7.65;;;2.58;;
49730;SDS011;35622;52.008;5.426;2023-09-30T11:10:02;7.72;;;2.40;;
49730;SDS011;35622;52.008;5.426;2023-09-30T11:12:28;7.15;;;2.30;;
49730;SDS011;35622;52.008;5.426;2023-09-30T11:15:00;5.90;;;2.35;;
49730;SDS011;35622;52.008;5.426;2023-09-30T11:17:27;8.40;;;2.83;;
49730;SDS011;35622;52.008;5.426;2023-09-30T11:19:53;8.32;;;3.03;;
49730;SDS011;35622;52.008;5.426;2023-09-30T11:22:19;8.85;;;2.42;;
49730;SDS011;35622;52.008;5.426;2023-09-30T11:24:45;8.52;;;3.08;;
49730;SDS011;35622;52.008;5.426;2023-09-30T11:27:11;9.07;;;2.72;;
49730;SDS011;35622;52.008;5.426;2023-09-30T11:29:36;5.63;;;2.10;;
49730;SDS011;35622;52.008;5.426;2023-09-30T11:32:02;8.00;;;2.45;;
49730;SDS011;35622;52.008;5.426;2023-09-30T11:34:32;9.23;;;2.55;;
49730;SDS011;35622;52.008;5.426;2023-09-30T11:36:58;5.80;;;2.28;;
49730;SDS011;35622;52.008;5.426;2023-09-30T11:39:29;9.30;;;2.80;;
49730;SDS011;35622;52.008;5.426;2023-09-30T11:41:55;7.75;;;2.80;;
49730;SDS011;35622;52.008;5.426;2023-09-30T11:44:26;10.57;;;3.03;;
49730;SDS011;35622;52.008;5.426;2023-09-30T11:49:28;7.65;;;2.22;;
49730;SDS011;35622;52.008;5.426;2023-09-30T11:52:04;8.60;;;3.55;;
49730;SDS011;35622;52.008;5.426;2023-09-30T11:54:33;10.63;;;3.53;;
49730;SDS011;35622;52.008;5.426;2023-09-30T11:57:05;9.05;;;3.30;;
49730;SDS011;35622;52.008;5.426;2023-09-30T11:59:34;8.45;;;3.50;;
49730;SDS011;35622;52.008;5.426;2023-09-30T12:02:05;8.88;;;4.05;;
49730;SDS011;35622;52.008;5.426;2023-09-30T12:04:31;10.00;;;3.80;;
49730;SDS011;35622;52.008;5.426;2023-09-30T12:06:57;11.73;;;3.95;;
49730;SDS011;35622;52.008;5.426;2023-09-30T12:09:23;7.65;;;3.72;;
49730;SDS011;35622;52.008;5.426;2023-09-30T12:11:51;9.18;;;3.42;;
49730;SDS011;35622;52.008;5.426;2023-09-30T12:14:18;9.60;;;3.58;;
49730;SDS011;35622;52.008;5.426;2023-09-30T12:16:44;10.60;;;4.63;;
49730;SDS011;35622;52.008;5.426;2023-09-30T12:19:10;8.15;;;3.40;;
49730;SDS011;35622;52.008;5.426;2023-09-30T12:21:38;10.70;;;3.78;;
49730;SDS011;35622;52.008;5.426;2023-09-30T12:24:05;7.85;;;3.30;;
49730;SDS011;35622;52.008;5.426;2023-09-30T12:26:32;8.95;;;3.60;;
49730;SDS011;35622;52.008;5.426;2023-09-30T12:28:58;11.57;;;3.70;;
49730;SDS011;35622;52.008;5.426;2023-09-30T12:31:24;10.85;;;4.03;;
49730;SDS011;35622;52.008;5.426;2023-09-30T12:33:50;8.60;;;3.30;;
49730;SDS011;35622;52.008;5.426;2023-09-30T12:36:17;10.35;;;3.47;;
49730;SDS011;35622;52.008;5.426;2023-09-30T12:38:43;10.07;;;4.00;;
49730;SDS011;35622;52.008;5.426;2023-09-30T12:41:09;7.80;;;3.55;;
49730;SDS011;35622;52.008;5.426;2023-09-30T12:43:35;9.15;;;3.72;;
49730;SDS011;35622;52.008;5.426;2023-09-30T12:46:02;8.93;;;3.08;;
49730;SDS011;35622;52.008;5.426;2023-09-30T12:48:29;7.25;;;3.00;;
49730;SDS011;35622;52.008;5.426;2023-09-30T12:50:55;7.35;;;3.05;;
49730;SDS011;35622;52.008;5.426;2023-09-30T12:53:20;11.38;;;3.28;;
49730;SDS011;35622;52.008;5.426;2023-09-30T12:55:46;7.10;;;2.78;;
49730;SDS011;35622;52.008;5.426;2023-09-30T12:58:12;9.88;;;3.05;;
49730;SDS011;35622;52.008;5.426;2023-09-30T13:00:37;9.32;;;3.53;;
49730;SDS011;35622;52.008;5.426;2023-09-30T13:03:03;7.85;;;3.00;;
49730;SDS011;35622;52.008;5.426;2023-09-30T13:05:29;9.93;;;3.90;;
49730;SDS011;35622;52.008;5.426;2023-09-30T13:07:55;12.63;;;4.40;;
49730;SDS011;35622;52.008;5.426;2023-09-30T13:10:21;7.82;;;2.55;;
49730;SDS011;35622;52.008;5.426;2023-09-30T13:12:47;7.47;;;3.65;;
49730;SDS011;35622;52.008;5.426;2023-09-30T13:15:14;9.63;;;3.63;;
49730;SDS011;35622;52.008;5.426;2023-09-30T13:17:41;13.13;;;4.00;;
49730;SDS011;35622;52.008;5.426;2023-09-30T13:20:08;11.43;;;3.53;;
49730;SDS011;35622;52.008;5.426;2023-09-30T13:22:34;8.38;;;3.17;;
49730;SDS011;35622;52.008;5.426;2023-09-30T13:25:03;5.70;;;3.10;;
49730;SDS011;35622;52.008;5.426;2023-09-30T13:27:30;10.98;;;3.50;;
49730;SDS011;35622;52.008;5.426;2023-09-30T13:29:56;9.40;;;3.70;;
49730;SDS011;35622;52.008;5.426;2023-09-30T13:32:23;10.18;;;3.35;;
49730;SDS011;35622;52.008;5.426;2023-09-30T13:34:52;10.43;;;3.90;;
49730;SDS011;35622;52.008;5.426;2023-09-30T13:37:17;10.38;;;3.60;;
49730;SDS011;35622;52.008;5.426;2023-09-30T13:39:43;10.75;;;3.90;;
49730;SDS011;35622;52.008;5.426;2023-09-30T13:42:09;13.30;;;5.07;;
49730;SDS011;35622;52.008;5.426;2023-09-30T13:44:34;8.57;;;4.22;;
49730;SDS011;35622;52.008;5.426;2023-09-30T13:47:01;10.35;;;4.13;;
49730;SDS011;35622;52.008;5.426;2023-09-30T13:49:27;9.90;;;3.70;;
49730;SDS011;35622;52.008;5.426;2023-09-30T13:51:52;8.13;;;3.35;;
49730;SDS011;35622;52.008;5.426;2023-09-30T13:54:18;8.20;;;3.90;;
49730;SDS011;35622;52.008;5.426;2023-09-30T13:56:43;11.15;;;4.30;;
49730;SDS011;35622;52.008;5.426;2023-09-30T13:59:09;9.48;;;3.75;;
49730;SDS011;35622;52.008;5.426;2023-09-30T14:01:35;12.00;;;4.40;;
49730;SDS011;35622;52.008;5.426;2023-09-30T14:04:01;11.57;;;4.15;;
49730;SDS011;35622;52.008;5.426;2023-09-30T14:06:29;10.93;;;4.75;;
49730;SDS011;35622;52.008;5.426;2023-09-30T14:08:55;10.50;;;4.20;;
49730;SDS011;35622;52.008;5.426;2023-09-30T14:11:20;11.13;;;4.72;;
49730;SDS011;35622;52.008;5.426;2023-09-30T14:13:46;9.05;;;4.32;;
49730;SDS011;35622;52.008;5.426;2023-09-30T14:16:11;14.48;;;5.50;;
49730;SDS011;35622;52.008;5.426;2023-09-30T14:18:37;9.15;;;4.05;;
49730;SDS011;35622;52.008;5.426;2023-09-30T14:21:04;13.40;;;5.13;;
49730;SDS011;35622;52.008;5.426;2023-09-30T14:23:30;11.60;;;4.07;;
49730;SDS011;35622;52.008;5.426;2023-09-30T14:25:55;10.10;;;4.43;;
49730;SDS011;35622;52.008;5.426;2023-09-30T14:28:21;12.20;;;4.25;;
49730;SDS011;35622;52.008;5.426;2023-09-30T14:30:47;8.70;;;4.28;;
49730;SDS011;35622;52.008;5.426;2023-09-30T14:33:15;10.93;;;4.28;;
49730;SDS011;35622;52.008;5.426;2023-09-30T14:35:41;11.02;;;4.38;;
49730;SDS011;35622;52.008;5.426;2023-09-30T14:38:08;11.38;;;4.03;;
49730;SDS011;35622;52.008;5.426;2023-09-30T14:40:36;10.57;;;3.97;;
49730;SDS011;35622;52.008;5.426;2023-09-30T14:43:04;12.13;;;5.05;;
49730;SDS011;35622;52.008;5.426;2023-09-30T14:45:30;10.98;;;4.35;;
49730;SDS011;35622;52.008;5.426;2023-09-30T14:47:56;12.05;;;4.28;;
49730;SDS011;35622;52.008;5.426;2023-09-30T14:50:22;11.27;;;4.53;;